createdAt,value
2023-02-12T00:01:19.139Z,101577.90
2023-02-12T00:04:04.178Z,101582.83
2023-02-12T00:06:38.007Z,101589.10
2023-02-12T00:09:11.653Z,101590.20
2023-02-12T00:11:45.492Z,101596.70
2023-02-12T00:14:19.437Z,101598.98
2023-02-12T00:16:52.849Z,101602.56
2023-02-12T00:19:26.981Z,101602.66
2023-02-12T00:22:00.797Z,101607.52
2023-02-12T00:24:53.780Z,101623.85
2023-02-12T00:27:30.083Z,101631.54
2023-02-12T00:30:05.045Z,101638.40
2023-02-12T00:32:39.062Z,101648.25
2023-02-12T00:35:14.515Z,101649.16
2023-02-12T00:37:48.017Z,101648.39
2023-02-12T00:40:22.551Z,101649.23
2023-02-12T00:42:56.088Z,101644.61
2023-02-12T00:45:30.261Z,101642.06
2023-02-12T00:48:05.360Z,101646.84
2023-02-12T00:50:41.464Z,101653.80
2023-02-12T00:53:15.232Z,101657.61
2023-02-12T00:55:49.037Z,101666.86
2023-02-12T00:58:23.156Z,101668.88
2023-02-12T01:00:57.547Z,101678.33
2023-02-12T01:03:31.558Z,101680.21
2023-02-12T01:06:14.919Z,101677.48
2023-02-12T01:08:51.817Z,101682.56
2023-02-12T01:11:26.004Z,101689.86
2023-02-12T01:14:00.413Z,101695.62
2023-02-12T01:16:36.837Z,101702.20
2023-02-12T01:19:12.981Z,101704.93
2023-02-12T01:21:46.825Z,101702.41
2023-02-12T01:24:20.746Z,101705.48
2023-02-12T01:26:54.656Z,101709.59
2023-02-12T01:29:28.472Z,101721.57
2023-02-12T01:32:02.106Z,101720.73
2023-02-12T01:34:36.566Z,101721.23
2023-02-12T01:37:10.551Z,101732.00
2023-02-12T01:39:44.545Z,101735.14
2023-02-12T01:42:19.557Z,101736.20
2023-02-12T01:45:26.203Z,101740.56
2023-02-12T01:48:09.677Z,101737.87
2023-02-12T01:50:45.642Z,101739.86
2023-02-12T01:53:25.231Z,101735.66
2023-02-12T01:56:02.559Z,101731.02
2023-02-12T01:58:40.926Z,101742.49
2023-02-12T02:01:23.161Z,101752.45
2023-02-12T02:04:01.461Z,101758.03
2023-02-12T02:06:40.743Z,101765.31
2023-02-12T02:09:14.717Z,101765.58
2023-02-12T02:12:05.549Z,101767.02
2023-02-12T02:14:40.518Z,101772.30
2023-02-12T02:17:41.490Z,101775.54
2023-02-12T02:20:35.507Z,101785.59
2023-02-12T02:23:38.216Z,101789.93
2023-02-12T02:27:03.969Z,101783.21
2023-02-12T02:30:16.401Z,101795.72
2023-02-12T02:32:58.409Z,101813.23
2023-02-12T02:35:40.265Z,101818.64
2023-02-12T02:38:24.804Z,101821.22
2023-02-12T02:41:06.058Z,101821.39
2023-02-12T02:43:46.006Z,101825.34
2023-02-12T02:46:26.659Z,101834.98
2023-02-12T02:49:04.136Z,101839.64
2023-02-12T02:51:43.417Z,101838.69
2023-02-12T02:54:21.711Z,101847.41
2023-02-12T02:56:59.162Z,101855.70
2023-02-12T02:59:37.267Z,101858.85
2023-02-12T03:02:17.308Z,101865.20
2023-02-12T03:04:53.909Z,101877.44
2023-02-12T03:07:31.288Z,101882.36
2023-02-12T03:10:09.466Z,101885.68
2023-02-12T03:12:54.919Z,101896.44
2023-02-12T03:15:34.546Z,101904.05
2023-02-12T03:18:13.588Z,101912.54
2023-02-12T03:20:51.281Z,101921.67
2023-02-12T03:23:28.368Z,101919.92
2023-02-12T03:26:08.270Z,101926.55
2023-02-12T03:28:43.010Z,101928.48
2023-02-12T03:31:30.719Z,101930.62
2023-02-12T03:34:20.853Z,101934.14
2023-02-12T03:37:20.299Z,101936.94
2023-02-12T03:39:58.957Z,101936.56
2023-02-12T03:42:42.281Z,101945.00
2023-02-12T03:45:31.057Z,101955.17
2023-02-12T03:48:10.890Z,101957.45
2023-02-12T03:50:50.159Z,101958.33
2023-02-12T03:53:24.250Z,101963.55
2023-02-12T03:56:25.636Z,101974.57
2023-02-12T03:58:59.268Z,101988.48
2023-02-12T04:01:33.461Z,101994.01
2023-02-12T04:04:09.888Z,101994.15
2023-02-12T04:06:44.149Z,101997.82
2023-02-12T04:09:33.078Z,101999.18
2023-02-12T04:12:33.243Z,101995.40
2023-02-12T04:15:32.606Z,102005.29
2023-02-12T04:18:14.108Z,102006.45
2023-02-12T04:21:00.202Z,102013.94
2023-02-12T04:23:55.887Z,102011.95
2023-02-12T04:26:38.077Z,102015.61
2023-02-12T04:29:20.782Z,102017.59
2023-02-12T04:31:58.076Z,102020.92
2023-02-12T04:34:59.642Z,102021.56
2023-02-12T04:37:46.726Z,102022.39
2023-02-12T04:40:32.384Z,102024.79
2023-02-12T04:43:06.064Z,102025.16
2023-02-12T04:45:40.696Z,102029.27
2023-02-12T04:48:15.350Z,102028.83
2023-02-12T04:50:48.834Z,102029.02
2023-02-12T04:53:43.126Z,102030.42
2023-02-12T04:56:17.193Z,102034.89
2023-02-12T04:59:00.173Z,102037.83
2023-02-12T05:01:44.502Z,102039.78
2023-02-12T05:04:21.584Z,102050.67
2023-02-12T05:06:55.182Z,102061.48
2023-02-12T05:09:29.207Z,102063.35
2023-02-12T05:12:02.803Z,102065.91
2023-02-12T05:14:46.939Z,102079.56
2023-02-12T05:17:20.487Z,102083.28
2023-02-12T05:19:54.723Z,102084.27
2023-02-12T05:22:28.800Z,102089.92
2023-02-12T05:25:03.002Z,102091.80
2023-02-12T05:27:36.706Z,102094.27
2023-02-12T05:30:14.370Z,102099.05
2023-02-12T05:32:48.041Z,102100.13
2023-02-12T05:35:21.964Z,102100.31
2023-02-12T05:37:55.286Z,102105.64
2023-02-12T05:40:49.961Z,102114.30
2023-02-12T05:43:23.248Z,102118.63
2023-02-12T05:45:57.420Z,102125.11
2023-02-12T05:48:32.171Z,102126.96
2023-02-12T05:51:15.679Z,102133.33
2023-02-12T05:53:50.048Z,102143.17
2023-02-12T05:56:28.276Z,102145.61
2023-02-12T05:59:14.950Z,102144.25
2023-02-12T06:01:53.233Z,102149.98
2023-02-12T06:04:28.608Z,102156.95
2023-02-12T06:07:03.735Z,102161.04
2023-02-12T06:09:38.964Z,102168.58
2023-02-12T06:12:12.462Z,102176.35
2023-02-12T06:14:46.461Z,102183.34
2023-02-12T06:17:19.816Z,102185.52
2023-02-12T06:19:53.812Z,102190.07
2023-02-12T06:22:27.925Z,102194.56
2023-02-12T06:25:13.268Z,102192.30
2023-02-12T06:27:57.512Z,102190.27
2023-02-12T06:30:32.123Z,102199.05
2023-02-12T06:33:06.043Z,102199.77
2023-02-12T06:35:40.944Z,102199.73
2023-02-12T06:38:15.520Z,102198.54
2023-02-12T06:40:49.767Z,102202.66
2023-02-12T06:43:43.706Z,102207.83
2023-02-12T06:46:17.494Z,102207.60
2023-02-12T06:48:54.657Z,102206.70
2023-02-12T06:51:38.896Z,102207.91
2023-02-12T06:54:18.415Z,102207.80
2023-02-12T06:56:59.629Z,102209.42
2023-02-12T06:59:33.559Z,102210.80
2023-02-12T07:02:06.994Z,102215.14
2023-02-12T07:04:41.171Z,102224.04
2023-02-12T07:07:15.177Z,102229.05
2023-02-12T07:09:48.891Z,102226.44
2023-02-12T07:12:22.358Z,102229.05
2023-02-12T07:14:56.325Z,102232.68
2023-02-12T07:17:30.875Z,102234.88
2023-02-12T07:20:05.241Z,102242.90
2023-02-12T07:22:41.055Z,102241.49
2023-02-12T07:25:15.073Z,102246.13
2023-02-12T07:27:49.304Z,102244.98
2023-02-12T07:30:23.497Z,102243.41
2023-02-12T07:32:57.498Z,102244.15
2023-02-12T07:35:31.002Z,102241.18
2023-02-12T07:38:04.534Z,102235.00
2023-02-12T07:40:37.994Z,102233.00
2023-02-12T07:43:11.488Z,102230.11
2023-02-12T07:45:49.265Z,102231.33
2023-02-12T07:48:23.565Z,102235.77
2023-02-12T07:50:57.739Z,102239.89
2023-02-12T07:53:31.484Z,102237.52
2023-02-12T07:56:12.675Z,102238.02
2023-02-12T07:58:47.583Z,102243.33
2023-02-12T08:01:23.360Z,102239.41
2023-02-12T08:04:00.220Z,102238.23
2023-02-12T08:06:47.517Z,102241.38
2023-02-12T08:09:25.489Z,102245.81
2023-02-12T08:11:59.920Z,102250.67
2023-02-12T08:14:34.088Z,102260.80
2023-02-12T08:17:08.799Z,102262.93
2023-02-12T08:19:43.273Z,102265.98
2023-02-12T08:22:17.168Z,102269.23
2023-02-12T08:25:02.284Z,102269.98
2023-02-12T08:27:46.946Z,102277.30
2023-02-12T08:30:40.642Z,102277.15
2023-02-12T08:33:34.862Z,102278.00
2023-02-12T08:36:11.805Z,102281.63
2023-02-12T08:38:46.513Z,102279.31
2023-02-12T08:41:42.620Z,102286.48
2023-02-12T08:44:17.396Z,102286.05
2023-02-12T08:47:00.511Z,102281.95
2023-02-12T08:49:34.081Z,102275.20
2023-02-12T08:52:08.103Z,102273.52
2023-02-12T08:54:41.716Z,102268.21
2023-02-12T08:57:15.185Z,102270.92
2023-02-12T08:59:50.206Z,102267.52
2023-02-12T09:02:23.616Z,102269.05
2023-02-12T09:04:57.056Z,102278.78
2023-02-12T09:07:30.685Z,102284.89
2023-02-12T09:10:04.052Z,102286.48
2023-02-12T09:12:37.938Z,102290.02
2023-02-12T09:15:12.410Z,102292.04
2023-02-12T09:17:46.246Z,102292.61
2023-02-12T09:20:20.295Z,102293.67
2023-02-12T09:22:54.371Z,102293.13
2023-02-12T09:25:28.163Z,102291.13
2023-02-12T09:28:02.292Z,102292.23
2023-02-12T09:30:36.251Z,102294.11
2023-02-12T09:33:11.762Z,102291.48
2023-02-12T09:35:48.273Z,102295.81
2023-02-12T09:38:22.356Z,102301.40
2023-02-12T09:41:33.344Z,102305.36
2023-02-12T09:44:17.038Z,102314.11
2023-02-12T09:46:55.892Z,102317.27
2023-02-12T09:49:48.787Z,102318.58
2023-02-12T09:52:27.029Z,102318.81
2023-02-12T09:55:02.056Z,102323.30
2023-02-12T09:57:37.749Z,102324.04
2023-02-12T10:00:17.562Z,102323.02
2023-02-12T10:02:55.531Z,102325.38
2023-02-12T10:05:35.428Z,102328.77
2023-02-12T10:08:27.926Z,102331.85
2023-02-12T10:11:14.623Z,102329.42
2023-02-12T10:13:56.499Z,102330.03
2023-02-12T10:16:44.588Z,102329.66
2023-02-12T10:19:33.175Z,102323.02
2023-02-12T10:22:20.652Z,102324.28
2023-02-12T10:25:04.917Z,102325.09
2023-02-12T10:27:45.186Z,102326.29
2023-02-12T10:30:24.339Z,102327.57
2023-02-12T10:33:05.699Z,102324.59
2023-02-12T10:35:45.711Z,102327.51
2023-02-12T10:38:23.144Z,102315.38
2023-02-12T10:41:02.845Z,102312.06
2023-02-12T10:43:37.435Z,102306.11
2023-02-12T10:46:16.746Z,102300.08
2023-02-12T10:48:54.928Z,102304.96
2023-02-12T10:51:49.058Z,102308.77
2023-02-12T10:54:41.683Z,102304.41
2023-02-12T10:57:22.646Z,102299.01
2023-02-12T10:59:58.604Z,102294.91
2023-02-12T11:02:35.370Z,102295.71
2023-02-12T11:05:26.463Z,102303.94
2023-02-12T11:08:07.718Z,102302.79
2023-02-12T11:10:43.356Z,102295.77
2023-02-12T11:13:27.559Z,102288.59
2023-02-12T11:16:02.314Z,102290.23
2023-02-12T11:18:37.677Z,102291.83
2023-02-12T11:21:14.518Z,102299.46
2023-02-12T11:23:49.135Z,102304.95
2023-02-12T11:26:30.759Z,102307.81
2023-02-12T11:29:23.909Z,102305.22
2023-02-12T11:32:08.947Z,102299.17
2023-02-12T11:34:43.647Z,102293.59
2023-02-12T11:37:26.940Z,102293.76
2023-02-12T11:40:01.564Z,102293.38
2023-02-12T11:42:44.176Z,102287.66
2023-02-12T11:45:23.836Z,102285.94
2023-02-12T11:47:58.996Z,102282.90
2023-02-12T11:50:35.091Z,102282.52
2023-02-12T11:53:21.762Z,102278.20
2023-02-12T11:56:02.136Z,102278.23
2023-02-12T11:58:37.336Z,102276.48
2023-02-12T12:01:20.981Z,102282.27
2023-02-12T12:04:02.344Z,102286.73
2023-02-12T12:06:40.470Z,102289.06
2023-02-12T12:09:27.238Z,102285.70
2023-02-12T12:12:14.047Z,102287.40
2023-02-12T12:15:10.517Z,102282.93
2023-02-12T12:18:08.889Z,102285.28
2023-02-12T12:20:51.531Z,102284.90
2023-02-12T12:23:34.560Z,102281.75
2023-02-12T12:26:16.051Z,102275.66
2023-02-12T12:29:00.100Z,102260.27
2023-02-12T12:31:47.806Z,102258.61
2023-02-12T12:34:24.367Z,102262.52
2023-02-12T12:37:21.414Z,102265.02
2023-02-12T12:40:20.202Z,102263.18
2023-02-12T12:43:21.391Z,102264.05
2023-02-12T12:46:25.952Z,102266.08
2023-02-12T12:49:43.014Z,102265.17
2023-02-12T12:52:56.655Z,102256.67
2023-02-12T12:56:11.466Z,102262.47
2023-02-12T12:59:04.954Z,102259.84
2023-02-12T13:01:57.697Z,102256.59
2023-02-12T13:05:09.661Z,102258.59
2023-02-12T13:07:58.812Z,102258.02
2023-02-12T13:10:43.718Z,102255.77
2023-02-12T13:13:34.060Z,102249.51
2023-02-12T13:16:17.885Z,102246.64
2023-02-12T13:18:59.397Z,102251.64
2023-02-12T13:21:43.614Z,102250.59
2023-02-12T13:24:28.679Z,102251.48
2023-02-12T13:27:09.255Z,102250.90
2023-02-12T13:29:52.413Z,102253.60
2023-02-12T13:32:38.000Z,102250.08
2023-02-12T13:35:21.491Z,102251.04
2023-02-12T13:37:59.360Z,102245.95
2023-02-12T13:40:35.258Z,102254.29
2023-02-12T13:43:25.722Z,102257.16
2023-02-12T13:46:27.590Z,102256.09
2023-02-12T13:49:27.291Z,102253.02
2023-02-12T13:52:12.382Z,102254.80
2023-02-12T13:54:59.179Z,102250.70
2023-02-12T13:57:35.308Z,102251.45
2023-02-12T14:01:04.833Z,102247.94
2023-02-12T14:03:42.632Z,102245.37
2023-02-12T14:06:22.787Z,102245.93
2023-02-12T14:09:24.387Z,102248.44
2023-02-12T14:12:06.678Z,102248.29
2023-02-12T14:14:47.592Z,102251.42
2023-02-12T14:17:56.083Z,102255.13
2023-02-12T14:20:34.776Z,102262.58
2023-02-12T14:23:28.145Z,102262.02
2023-02-12T14:26:13.658Z,102256.05
2023-02-12T14:28:57.012Z,102252.23
2023-02-12T14:31:40.170Z,102249.80
2023-02-12T14:34:41.921Z,102253.59
2023-02-12T14:37:37.499Z,102252.34
2023-02-12T14:40:46.235Z,102251.82
2023-02-12T14:44:01.240Z,102252.63
2023-02-12T14:46:52.220Z,102251.19
2023-02-12T14:49:36.388Z,102251.27
2023-02-12T14:52:23.169Z,102250.49
2023-02-12T14:55:24.228Z,102251.17
2023-02-12T14:58:05.125Z,102255.10
2023-02-12T15:00:44.100Z,102259.05
2023-02-12T15:03:31.868Z,102254.98
2023-02-12T15:06:20.992Z,102255.05
2023-02-12T15:09:03.233Z,102253.30
2023-02-12T15:11:47.385Z,102253.04
2023-02-12T15:14:26.145Z,102257.45
2023-02-12T15:17:10.930Z,102256.63
2023-02-12T15:19:55.723Z,102255.73
2023-02-12T15:22:37.509Z,102261.83
2023-02-12T15:25:35.426Z,102268.72
2023-02-12T15:28:27.610Z,102268.44
2023-02-12T15:31:11.911Z,102270.07
2023-02-12T15:33:53.035Z,102271.30
2023-02-12T15:36:30.666Z,102272.29
2023-02-12T15:39:11.748Z,102274.11
2023-02-12T15:41:48.430Z,102279.01
2023-02-12T15:44:40.302Z,102284.30
2023-02-12T15:47:19.651Z,102284.80
2023-02-12T15:50:06.792Z,102288.13
2023-02-12T15:52:44.827Z,102288.59
2023-02-12T15:55:26.291Z,102285.80
2023-02-12T15:58:04.508Z,102286.09
2023-02-12T16:00:48.149Z,102281.67
2023-02-12T16:03:39.289Z,102283.23
2023-02-12T16:06:17.924Z,102279.71
2023-02-12T16:08:58.793Z,102277.79
2023-02-12T16:11:35.468Z,102276.48
2023-02-12T16:14:23.575Z,102273.70
2023-02-12T16:17:13.788Z,102270.63
2023-02-12T16:20:03.227Z,102270.44
2023-02-12T16:22:43.075Z,102262.61
2023-02-12T16:25:33.563Z,102267.52
2023-02-12T16:28:27.333Z,102270.03
2023-02-12T16:31:22.926Z,102264.96
2023-02-12T16:34:00.177Z,102263.45
2023-02-12T16:36:37.078Z,102264.63
2023-02-12T16:40:12.307Z,102262.03
2023-02-12T16:43:03.111Z,102261.95
2023-02-12T16:45:45.455Z,102257.77
2023-02-12T16:48:30.209Z,102253.43
2023-02-12T16:51:06.576Z,102256.63
2023-02-12T16:53:49.021Z,102256.36
2023-02-12T16:56:26.944Z,102254.57
2023-02-12T16:59:09.812Z,102253.69
2023-02-12T17:02:03.841Z,102250.38
2023-02-12T17:04:49.496Z,102253.05
2023-02-12T17:07:31.539Z,102256.10
2023-02-12T17:10:22.006Z,102260.29
2023-02-12T17:12:59.663Z,102252.88
2023-02-12T17:15:59.933Z,102246.88
2023-02-12T17:18:39.382Z,102246.48
2023-02-12T17:21:27.501Z,102246.97
2023-02-12T17:24:22.117Z,102256.94
2023-02-12T17:27:03.833Z,102261.30
2023-02-12T17:29:42.660Z,102264.92
2023-02-12T17:32:29.881Z,102266.55
2023-02-12T17:35:01.874Z,102268.08
2023-02-12T17:37:44.275Z,102269.91
2023-02-12T17:40:24.999Z,102270.78
2023-02-12T17:43:04.994Z,102267.81
2023-02-12T17:45:49.907Z,102272.33
2023-02-12T17:48:41.520Z,102290.03
2023-02-12T17:51:21.271Z,102303.45
2023-02-12T17:54:00.553Z,102306.45
2023-02-12T17:56:41.103Z,102300.32
2023-02-12T17:59:15.423Z,102296.73
2023-02-12T18:01:56.100Z,102290.34
2023-02-12T18:04:50.232Z,102289.23
2023-02-12T18:07:32.896Z,102296.63
2023-02-12T18:10:11.741Z,102283.39
2023-02-12T18:12:51.146Z,102280.43
2023-02-12T18:15:28.935Z,102274.98
2023-02-12T18:18:08.213Z,102277.76
2023-02-12T18:20:55.448Z,102275.36
2023-02-12T18:23:34.128Z,102273.69
2023-02-12T18:26:14.416Z,102271.20
2023-02-12T18:28:54.868Z,102265.98
2023-02-12T18:31:33.418Z,102258.03
2023-02-12T18:34:16.655Z,102256.86
2023-02-12T18:36:53.419Z,102257.27
2023-02-12T18:39:33.652Z,102252.91
2023-02-12T18:42:14.908Z,102252.35
2023-02-12T18:44:53.261Z,102248.05
2023-02-12T18:47:46.546Z,102245.97
2023-02-12T18:50:25.976Z,102248.83
2023-02-12T18:53:07.873Z,102244.73
2023-02-12T18:55:50.431Z,102245.73
2023-02-12T18:58:33.062Z,102245.69
2023-02-12T19:01:19.045Z,102237.63
2023-02-12T19:03:59.900Z,102235.89
2023-02-12T19:06:41.858Z,102239.05
2023-02-12T19:09:22.651Z,102240.28
2023-02-12T19:12:08.900Z,102238.64
2023-02-12T19:14:47.489Z,102237.19
2023-02-12T19:17:25.372Z,102235.10
2023-02-12T19:20:06.025Z,102232.70
2023-02-12T19:22:44.443Z,102223.79
2023-02-12T19:25:29.458Z,102223.05
2023-02-12T19:28:10.430Z,102222.60
2023-02-12T19:30:47.258Z,102222.36
2023-02-12T19:33:27.864Z,102219.90
2023-02-12T19:36:07.936Z,102220.21
2023-02-12T19:38:53.856Z,102216.86
2023-02-12T19:41:33.316Z,102210.20
2023-02-12T19:44:13.654Z,102203.48
2023-02-12T19:46:51.463Z,102194.72
2023-02-12T19:49:34.860Z,102191.17
2023-02-12T19:52:18.576Z,102188.02
2023-02-12T19:55:00.836Z,102192.84
2023-02-12T19:57:45.702Z,102190.52
2023-02-12T20:00:24.665Z,102187.46
2023-02-12T20:03:04.318Z,102188.55
2023-02-12T20:05:47.360Z,102185.02
2023-02-12T20:08:27.510Z,102184.16
2023-02-12T20:11:30.417Z,102185.15
2023-02-12T20:14:12.456Z,102182.99
2023-02-12T20:16:50.917Z,102181.02
2023-02-12T20:19:29.425Z,102183.20
2023-02-12T20:22:12.270Z,102177.85
2023-02-12T20:24:53.342Z,102178.39
2023-02-12T20:27:32.133Z,102181.26
2023-02-12T20:30:18.716Z,102177.29
2023-02-12T20:33:02.660Z,102175.24
2023-02-12T20:35:40.444Z,102178.55
2023-02-12T20:38:40.179Z,102170.28
2023-02-12T20:41:25.582Z,102163.91
2023-02-12T20:44:18.616Z,102162.55
2023-02-12T20:46:58.276Z,102157.33
2023-02-12T20:49:36.072Z,102156.27
2023-02-12T20:52:12.331Z,102155.12
2023-02-12T20:54:48.045Z,102154.35
2023-02-12T20:57:25.932Z,102149.98
2023-02-12T21:00:07.218Z,102152.66
2023-02-12T21:02:43.694Z,102153.05
2023-02-12T21:05:20.444Z,102150.21
2023-02-12T21:07:57.804Z,102147.86
2023-02-12T21:10:35.745Z,102142.88
2023-02-12T21:13:14.264Z,102142.47
2023-02-12T21:15:51.097Z,102140.63
2023-02-12T21:18:30.732Z,102139.34
2023-02-12T21:21:13.808Z,102140.20
2023-02-12T21:23:49.607Z,102141.64
2023-02-12T21:26:33.376Z,102137.49
2023-02-12T21:29:10.613Z,102138.36
2023-02-12T21:31:52.216Z,102138.10
2023-02-12T21:34:33.853Z,102143.90
2023-02-12T21:37:12.604Z,102142.98
2023-02-12T21:39:49.760Z,102141.56
2023-02-12T21:42:25.088Z,102144.16
2023-02-12T21:44:59.186Z,102146.68
2023-02-12T21:47:36.475Z,102143.77
2023-02-12T21:50:15.000Z,102142.22
2023-02-12T21:52:52.702Z,102139.58
2023-02-12T21:55:26.543Z,102140.56
2023-02-12T21:58:01.173Z,102134.69
2023-02-12T22:00:35.346Z,102128.83
2023-02-12T22:03:09.741Z,102121.98
2023-02-12T22:05:44.094Z,102124.33
2023-02-12T22:08:18.183Z,102121.85
2023-02-12T22:10:52.444Z,102121.84
2023-02-12T22:13:26.461Z,102120.31
2023-02-12T22:16:08.775Z,102126.80
2023-02-12T22:18:45.771Z,102126.36
2023-02-12T22:21:20.051Z,102125.23
2023-02-12T22:23:55.142Z,102121.23
2023-02-12T22:26:30.115Z,102116.70
2023-02-12T22:29:06.221Z,102116.73
2023-02-12T22:31:42.562Z,102123.31
2023-02-12T22:34:18.127Z,102123.23
2023-02-12T22:36:51.934Z,102122.16
2023-02-12T22:39:25.797Z,102120.46
2023-02-12T22:41:59.767Z,102114.31
2023-02-12T22:44:34.527Z,102110.91
2023-02-12T22:47:08.496Z,102111.27
2023-02-12T22:49:41.979Z,102105.63
2023-02-12T22:52:16.110Z,102101.30
2023-02-12T22:54:50.063Z,102100.21
2023-02-12T22:57:24.367Z,102097.83
2023-02-12T22:59:58.594Z,102092.30
2023-02-12T23:02:32.194Z,102087.55
2023-02-12T23:05:06.445Z,102085.61
2023-02-12T23:07:40.282Z,102081.98
2023-02-12T23:10:14.793Z,102080.83
2023-02-12T23:12:48.674Z,102073.84
2023-02-12T23:15:22.351Z,102070.77
2023-02-12T23:17:56.533Z,102066.85
2023-02-12T23:20:30.327Z,102063.41
2023-02-12T23:23:03.899Z,102058.55
2023-02-12T23:25:37.852Z,102059.27
2023-02-12T23:28:21.598Z,102059.66
2023-02-12T23:30:55.679Z,102054.44
2023-02-12T23:33:29.776Z,102052.44
2023-02-12T23:36:03.921Z,102048.09
2023-02-12T23:38:37.620Z,102044.66
2023-02-12T23:41:11.394Z,102043.14
2023-02-12T23:43:45.106Z,102035.98
2023-02-12T23:46:19.030Z,102031.05
2023-02-12T23:48:52.501Z,102023.20
2023-02-12T23:51:26.198Z,102020.93
2023-02-12T23:54:00.192Z,102013.16
2023-02-12T23:56:33.728Z,102011.50
2023-02-12T23:59:07.577Z,102010.58
